Time;durP1;ratioP1;P1;durP2;ratioP2;P2;SDS_P1;SDS_P2;PMS_P1;PMS_P2;Temp;Humidity;BMP_temperature;BMP_pressure;BME280_temperature;BME280_humidity;BME280_pressure;Samples;Min_cycle;Max_cycle;Signal;HPM_P1;HPM_P2
2023/08/30 00:00:52;;;;;;;3.60;2.47;;;12.90;99.90;;;;;;5063627;28;20496;-77
2023/08/30 00:03:20;;;;;;;2.83;1.77;;;12.90;99.90;;;;;;5064663;28;20882;-78
2023/08/30 00:05:47;;;;;;;1.70;1.53;;;12.90;99.90;;;;;;5066233;28;20550;-76
2023/08/30 00:08:18;;;;;;;2.30;1.77;;;12.90;99.90;;;;;;5066089;28;20479;-78
2023/08/30 00:10:46;;;;;;;2.60;2.40;;;12.90;99.90;;;;;;5062469;28;20516;-78
2023/08/30 00:13:13;;;;;;;3.00;2.70;;;12.90;99.90;;;;;;5060142;28;20493;-80
2023/08/30 00:15:40;;;;;;;2.40;2.20;;;12.90;99.90;;;;;;5054179;28;20508;-76
2023/08/30 00:18:07;;;;;;;6.10;5.00;;;12.90;99.90;;;;;;5059699;28;20533;-77
2023/08/30 00:20:34;;;;;;;2.80;2.33;;;12.90;99.90;;;;;;5056255;28;20522;-76
2023/08/30 00:23:01;;;;;;;2.83;1.73;;;12.90;99.90;;;;;;5058726;28;20443;-75
2023/08/30 00:25:28;;;;;;;2.87;2.07;;;12.90;99.90;;;;;;5061889;28;20492;-78
2023/08/30 00:27:56;;;;;;;3.03;2.00;;;12.90;99.90;;;;;;5061765;28;20443;-76
2023/08/30 00:30:23;;;;;;;2.70;2.03;;;12.90;99.90;;;;;;5053755;28;20511;-77
2023/08/30 00:32:51;;;;;;;2.67;2.50;;;12.90;99.90;;;;;;5063553;28;20451;-76
2023/08/30 00:35:18;;;;;;;2.97;2.67;;;12.90;99.90;;;;;;5064250;28;20993;-77
2023/08/30 00:37:45;;;;;;;2.30;1.77;;;12.90;99.90;;;;;;5067663;28;20475;-76
2023/08/30 00:40:12;;;;;;;2.60;2.47;;;12.90;99.90;;;;;;5061786;28;20517;-76
2023/08/30 00:42:40;;;;;;;2.27;1.87;;;12.90;99.90;;;;;;5063965;28;20473;-79
2023/08/30 00:45:09;;;;;;;3.87;2.20;;;12.90;99.90;;;;;;5061486;28;20549;-76
2023/08/30 00:47:37;;;;;;;2.27;2.07;;;12.90;99.90;;;;;;5062705;28;20512;-76
2023/08/30 00:50:04;;;;;;;4.07;1.83;;;12.90;99.90;;;;;;5057430;28;20893;-79
2023/08/30 00:52:31;;;;;;;1.73;1.63;;;12.90;99.90;;;;;;5060766;28;20479;-76
2023/08/30 00:54:58;;;;;;;3.93;2.30;;;12.90;99.90;;;;;;5062296;28;20445;-76
2023/08/30 00:57:25;;;;;;;1.70;1.40;;;12.90;99.90;;;;;;5061782;28;20447;-75
2023/08/30 00:59:54;;;;;;;2.30;2.10;;;12.90;99.90;;;;;;5057910;28;20985;-75
2023/08/30 01:02:23;;;;;;;1.97;1.87;;;12.90;99.90;;;;;;5057325;28;20817;-75
2023/08/30 01:04:50;;;;;;;2.27;2.00;;;12.90;99.90;;;;;;5062387;28;20538;-75
2023/08/30 01:07:19;;;;;;;2.07;1.87;;;12.90;99.90;;;;;;5065933;28;21167;-77
2023/08/30 01:09:46;;;;;;;1.33;1.20;;;12.80;99.90;;;;;;5064065;28;20490;-76
2023/08/30 01:12:21;;;;;;;1.57;1.47;;;12.80;99.90;;;;;;5063866;28;20539;-75
2023/08/30 01:14:56;;;;;;;2.90;1.57;;;12.80;99.90;;;;;;5066134;28;20471;-78
2023/08/30 01:17:25;;;;;;;2.40;1.00;;;12.90;99.90;;;;;;5059901;28;20442;-77
2023/08/30 01:19:59;;;;;;;1.73;1.07;;;12.90;99.90;;;;;;5052980;28;20531;-76
2023/08/30 01:22:39;;;;;;;1.60;1.50;;;12.80;99.90;;;;;;5066137;28;20512;-75
2023/08/30 01:25:18;;;;;;;1.10;1.00;;;12.90;99.90;;;;;;5055000;28;20530;-76
2023/08/30 01:27:49;;;;;;;1.67;1.10;;;12.80;99.90;;;;;;5054000;28;20521;-76
2023/08/30 01:30:18;;;;;;;4.00;1.43;;;12.80;99.90;;;;;;5062971;28;20479;-75
2023/08/30 01:32:46;;;;;;;2.10;1.30;;;12.90;99.90;;;;;;5059903;28;20444;-76
2023/08/30 01:35:17;;;;;;;2.07;1.40;;;12.80;99.90;;;;;;5063995;28;20459;-75
2023/08/30 01:37:46;;;;;;;1.87;1.20;;;12.80;99.90;;;;;;5056026;28;20533;-76
2023/08/30 01:40:14;;;;;;;1.33;1.23;;;12.90;99.90;;;;;;5059871;28;20931;-76
2023/08/30 01:42:42;;;;;;;1.50;1.40;;;12.90;99.90;;;;;;5063008;28;20764;-75
2023/08/30 01:45:13;;;;;;;2.50;2.23;;;12.90;99.90;;;;;;5064540;28;20991;-80
2023/08/30 01:47:41;;;;;;;1.93;1.80;;;12.90;99.90;;;;;;5055100;28;20457;-75
2023/08/30 01:50:10;;;;;;;1.70;1.33;;;13.00;99.90;;;;;;5058633;28;21055;-79
2023/08/30 01:52:37;;;;;;;1.50;1.40;;;13.00;99.90;;;;;;5058560;28;20470;-75
2023/08/30 01:55:06;;;;;;;1.40;1.30;;;13.00;99.90;;;;;;5058771;28;20446;-81
2023/08/30 01:57:33;;;;;;;1.67;1.57;;;13.00;99.90;;;;;;5063529;28;21043;-80
2023/08/30 02:00:00;;;;;;;1.43;1.33;;;13.00;99.90;;;;;;5055288;28;20956;-75
2023/08/30 02:02:31;;;;;;;1.80;1.70;;;13.00;99.90;;;;;;5053770;28;21010;-75
2023/08/30 02:04:58;;;;;;;2.27;1.77;;;13.00;99.90;;;;;;5061486;28;20482;-76
2023/08/30 02:07:31;;;;;;;2.33;2.00;;;13.00;99.90;;;;;;5065020;28;20443;-79
2023/08/30 02:10:02;;;;;;;1.10;1.00;;;13.00;99.90;;;;;;5052651;28;20528;-76
2023/08/30 02:12:36;;;;;;;1.77;1.10;;;13.00;99.90;;;;;;5063706;28;20557;-75
2023/08/30 02:15:03;;;;;;;1.20;1.07;;;13.00;99.90;;;;;;5060929;28;20444;-75
2023/08/30 02:17:32;;;;;;;1.97;1.50;;;13.00;99.90;;;;;;5064390;28;20493;-78
2023/08/30 02:19:59;;;;;;;1.10;1.00;;;13.00;99.90;;;;;;5052902;28;20475;-75
2023/08/30 02:22:27;;;;;;;0.93;0.83;;;13.00;99.90;;;;;;5067015;28;20442;-76
2023/08/30 02:24:54;;;;;;;0.80;0.80;;;13.10;99.90;;;;;;5054376;28;20446;-75
2023/08/30 02:27:21;;;;;;;1.07;0.93;;;13.10;99.90;;;;;;5052352;28;20754;-75
2023/08/30 02:29:47;;;;;;;1.37;1.27;;;13.00;99.90;;;;;;5056342;28;20568;-75
2023/08/30 02:32:15;;;;;;;1.50;1.40;;;13.00;99.90;;;;;;5051877;28;20503;-78
2023/08/30 02:34:43;;;;;;;0.83;0.83;;;13.10;99.90;;;;;;5058961;28;20452;-75
2023/08/30 02:37:10;;;;;;;1.43;0.93;;;13.10;99.90;;;;;;5061646;28;20460;-78
2023/08/30 02:39:37;;;;;;;1.43;1.33;;;13.10;99.90;;;;;;5065644;28;20525;-74
2023/08/30 02:42:04;;;;;;;1.40;1.00;;;13.10;99.90;;;;;;5068446;28;20440;-74
2023/08/30 02:44:31;;;;;;;2.50;1.67;;;13.00;99.90;;;;;;5068959;28;20449;-81
2023/08/30 02:46:58;;;;;;;3.90;1.60;;;13.00;99.90;;;;;;5064266;28;20443;-75
2023/08/30 02:49:25;;;;;;;4.00;1.60;;;13.10;99.90;;;;;;5056992;28;20515;-76
2023/08/30 02:51:53;;;;;;;3.07;1.93;;;13.00;99.90;;;;;;5054391;28;20512;-75
2023/08/30 02:54:22;;;;;;;2.50;1.40;;;13.10;99.90;;;;;;5058402;28;20433;-75
2023/08/30 02:56:49;;;;;;;2.23;2.03;;;13.10;99.90;;;;;;5059731;28;20449;-76
2023/08/30 02:59:16;;;;;;;3.10;2.70;;;13.10;99.90;;;;;;5062370;28;20439;-77
2023/08/30 03:01:43;;;;;;;3.00;2.60;;;13.00;99.90;;;;;;5059931;28;20887;-74
2023/08/30 03:04:10;;;;;;;3.20;2.33;;;13.00;99.90;;;;;;5067284;28;20946;-75
2023/08/30 03:06:37;;;;;;;3.43;3.00;;;13.00;99.90;;;;;;5064293;28;20474;-78
2023/08/30 03:09:06;;;;;;;3.50;2.90;;;13.00;99.90;;;;;;5065924;28;20448;-75
2023/08/30 03:11:33;;;;;;;3.43;2.83;;;13.00;99.90;;;;;;5063812;28;20507;-75
2023/08/30 03:14:00;;;;;;;3.33;2.37;;;13.00;99.90;;;;;;5066009;28;21005;-78
2023/08/30 03:16:27;;;;;;;3.63;3.33;;;13.00;99.90;;;;;;5062750;28;20444;-78
2023/08/30 03:18:54;;;;;;;4.50;2.90;;;12.90;99.90;;;;;;5065873;28;20447;-76
2023/08/30 03:21:21;;;;;;;2.67;2.47;;;13.00;99.90;;;;;;5063620;28;20455;-74
2023/08/30 03:23:48;;;;;;;3.93;3.63;;;13.00;99.90;;;;;;5067076;28;20463;-75
2023/08/30 03:26:17;;;;;;;4.63;3.10;;;13.00;99.90;;;;;;5059560;28;20920;-74
2023/08/30 03:28:45;;;;;;;2.70;2.50;;;12.90;99.90;;;;;;5060387;28;20533;-74
2023/08/30 03:31:14;;;;;;;2.37;2.17;;;13.00;99.90;;;;;;5062564;28;20569;-75
2023/08/30 03:33:42;;;;;;;1.87;1.70;;;12.90;99.90;;;;;;5058115;28;20486;-76
2023/08/30 03:36:10;;;;;;;2.20;2.00;;;13.00;99.90;;;;;;5063152;28;20529;-75
2023/08/30 03:38:37;;;;;;;6.50;2.17;;;12.90;99.90;;;;;;5064320;28;20529;-74
2023/08/30 03:41:04;;;;;;;3.70;2.20;;;12.90;99.90;;;;;;5065363;28;20884;-75
2023/08/30 03:43:33;;;;;;;2.40;2.20;;;12.90;99.90;;;;;;5066034;28;20538;-75
2023/08/30 03:46:01;;;;;;;2.80;2.60;;;12.80;99.90;;;;;;5061133;28;20469;-75
2023/08/30 03:48:28;;;;;;;3.57;2.70;;;12.90;99.90;;;;;;5051875;28;20449;-75
2023/08/30 03:50:56;;;;;;;2.97;2.63;;;12.80;99.90;;;;;;5056938;28;20547;-75
2023/08/30 03:53:23;;;;;;;2.60;2.23;;;12.80;99.90;;;;;;5061022;28;20471;-77
2023/08/30 03:55:50;;;;;;;3.40;3.10;;;12.80;99.90;;;;;;5056291;28;20523;-75
2023/08/30 03:58:17;;;;;;;3.93;2.70;;;12.80;99.90;;;;;;5065450;28;20495;-75
2023/08/30 04:00:46;;;;;;;2.70;2.50;;;12.80;99.90;;;;;;5065026;28;20479;-75
2023/08/30 04:03:15;;;;;;;2.73;2.53;;;12.70;99.90;;;;;;5063228;28;20517;-76
2023/08/30 04:05:42;;;;;;;3.40;3.00;;;12.70;99.90;;;;;;5062482;28;20491;-76
2023/08/30 04:08:09;;;;;;;3.30;2.97;;;12.70;99.90;;;;;;5064203;28;20492;-77
2023/08/30 04:10:36;;;;;;;3.90;3.07;;;12.70;99.90;;;;;;5067436;28;21022;-75
2023/08/30 04:13:04;;;;;;;4.00;3.03;;;12.60;99.90;;;;;;5062645;28;20448;-79
2023/08/30 04:15:34;;;;;;;3.40;3.10;;;12.70;99.90;;;;;;5058181;28;20951;-79
2023/08/30 04:18:03;;;;;;;3.53;3.23;;;12.70;99.90;;;;;;5062241;28;20528;-75
2023/08/30 04:20:32;;;;;;;5.10;4.10;;;12.70;99.90;;;;;;5055572;28;20440;-78
2023/08/30 04:23:01;;;;;;;3.33;3.13;;;12.70;99.90;;;;;;5057445;28;20510;-76
2023/08/30 04:25:28;;;;;;;4.77;4.37;;;12.70;99.90;;;;;;5052984;28;20546;-79
2023/08/30 04:27:55;;;;;;;7.17;4.37;;;12.70;99.90;;;;;;5054950;28;20445;-77
2023/08/30 04:30:22;;;;;;;4.43;4.03;;;12.60;99.90;;;;;;5056863;28;20508;-78
2023/08/30 04:32:49;;;;;;;5.30;4.60;;;12.60;99.90;;;;;;5060387;28;20538;-75
2023/08/30 04:35:18;;;;;;;6.10;5.50;;;12.60;99.90;;;;;;5059147;28;20483;-75
2023/08/30 04:37:44;;;;;;;6.10;5.27;;;12.60;99.90;;;;;;5058137;28;20528;-75
2023/08/30 04:40:12;;;;;;;3.80;3.50;;;12.60;99.90;;;;;;5064326;28;20530;-75
2023/08/30 04:42:40;;;;;;;6.63;5.67;;;12.60;99.90;;;;;;5059196;28;20457;-75
2023/08/30 04:45:09;;;;;;;5.63;4.90;;;12.50;99.90;;;;;;5058827;28;20447;-74
2023/08/30 04:47:36;;;;;;;6.00;5.37;;;12.50;99.90;;;;;;5065812;28;20462;-79
2023/08/30 04:50:04;;;;;;;6.60;4.53;;;12.50;99.90;;;;;;5064693;28;20498;-76
2023/08/30 04:52:32;;;;;;;5.63;4.90;;;12.60;99.90;;;;;;5061871;28;20566;-78
2023/08/30 04:54:59;;;;;;;6.43;4.40;;;12.50;99.90;;;;;;5063338;28;20508;-77
2023/08/30 04:57:27;;;;;;;5.97;5.07;;;12.50;99.90;;;;;;5064197;28;20456;-75
2023/08/30 04:59:54;;;;;;;5.60;4.93;;;12.60;99.90;;;;;;5064890;28;20449;-74
2023/08/30 05:02:20;;;;;;;5.40;4.83;;;12.60;99.90;;;;;;5066309;28;20494;-76
2023/08/30 05:04:48;;;;;;;4.60;3.60;;;12.60;99.90;;;;;;5064483;28;20956;-75
2023/08/30 05:07:15;;;;;;;5.83;4.70;;;12.60;99.90;;;;;;5065786;28;20542;-75
2023/08/30 05:09:43;;;;;;;5.33;4.83;;;12.60;99.90;;;;;;5064541;28;20445;-76
2023/08/30 05:12:10;;;;;;;3.27;2.60;;;12.50;99.90;;;;;;5063346;28;20494;-75
2023/08/30 05:14:37;;;;;;;4.90;4.50;;;12.60;99.90;;;;;;5061218;28;20472;-75
2023/08/30 05:17:04;;;;;;;3.50;3.10;;;12.60;99.90;;;;;;5063855;28;20435;-75
2023/08/30 05:19:31;;;;;;;3.50;3.17;;;12.60;99.90;;;;;;5061571;28;20459;-76
2023/08/30 05:21:58;;;;;;;4.80;4.40;;;12.70;99.90;;;;;;5058170;28;20471;-75
2023/08/30 05:24:26;;;;;;;4.40;3.20;;;12.70;99.90;;;;;;5062309;28;20452;-77
2023/08/30 05:26:54;;;;;;;5.80;4.93;;;12.70;99.90;;;;;;5055719;28;20464;-75
2023/08/30 05:29:21;;;;;;;5.63;5.13;;;12.70;99.90;;;;;;5061282;28;20467;-78
2023/08/30 05:31:48;;;;;;;4.80;4.40;;;12.70;99.90;;;;;;5059699;28;21059;-76
2023/08/30 05:34:15;;;;;;;5.30;4.80;;;12.70;99.90;;;;;;5053046;28;20475;-79
2023/08/30 05:36:43;;;;;;;4.43;4.00;;;12.70;99.90;;;;;;5062601;28;20529;-75
2023/08/30 05:39:10;;;;;;;4.60;3.90;;;12.70;99.90;;;;;;5052770;28;20458;-74
2023/08/30 05:41:37;;;;;;;4.70;4.30;;;12.70;99.90;;;;;;5052174;28;20528;-77
2023/08/30 05:44:07;;;;;;;6.23;4.80;;;12.70;99.90;;;;;;5060113;28;20472;-74
2023/08/30 05:46:35;;;;;;;3.90;3.60;;;12.70;99.90;;;;;;5053090;28;20447;-74
2023/08/30 05:49:03;;;;;;;4.20;3.73;;;12.70;99.90;;;;;;5065209;28;21020;-74
2023/08/30 05:51:30;;;;;;;4.10;3.43;;;12.70;99.90;;;;;;5065594;28;20487;-78
2023/08/30 05:53:56;;;;;;;4.03;3.73;;;12.80;99.90;;;;;;5058373;28;20532;-74
2023/08/30 05:56:23;;;;;;;3.40;3.03;;;12.80;99.90;;;;;;5064798;28;20516;-76
2023/08/30 05:58:50;;;;;;;3.87;3.47;;;12.90;99.90;;;;;;5061202;28;20987;-74
2023/08/30 06:01:20;;;;;;;3.63;3.07;;;12.90;99.90;;;;;;5056690;28;20831;-74
2023/08/30 06:03:47;;;;;;;4.47;4.07;;;12.90;99.90;;;;;;5055976;28;20458;-74
2023/08/30 06:06:14;;;;;;;3.90;3.43;;;12.90;99.90;;;;;;5060953;28;20454;-74
2023/08/30 06:08:41;;;;;;;3.87;3.03;;;13.00;99.90;;;;;;5060127;28;20545;-74
2023/08/30 06:11:08;;;;;;;4.70;4.07;;;13.10;99.90;;;;;;5055870;28;20506;-76
2023/08/30 06:13:35;;;;;;;3.80;3.37;;;13.10;99.90;;;;;;5060645;28;20522;-77
2023/08/30 06:16:02;;;;;;;5.33;4.40;;;13.10;99.90;;;;;;5061376;28;20471;-77
2023/08/30 06:18:32;;;;;;;2.73;2.50;;;13.20;99.90;;;;;;5066222;28;20534;-75
2023/08/30 06:20:59;;;;;;;3.43;3.13;;;13.30;99.90;;;;;;5064813;28;20560;-78
2023/08/30 06:23:25;;;;;;;3.50;3.20;;;13.40;99.90;;;;;;5061339;28;20467;-79
2023/08/30 06:25:56;;;;;;;3.17;2.90;;;13.60;99.90;;;;;;5054592;28;20462;-74
2023/08/30 06:28:23;;;;;;;3.33;3.13;;;13.70;99.90;;;;;;5058406;28;20461;-74
2023/08/30 06:30:50;;;;;;;4.30;4.00;;;13.70;99.90;;;;;;5059002;28;20442;-75
2023/08/30 06:33:17;;;;;;;4.07;3.67;;;13.90;99.90;;;;;;5063615;28;20463;-72
2023/08/30 06:35:48;;;;;;;3.73;3.43;;;13.90;99.90;;;;;;5067913;28;20578;-73
2023/08/30 06:38:15;;;;;;;3.33;2.57;;;14.10;99.90;;;;;;5069680;28;21144;-76
2023/08/30 06:40:45;;;;;;;2.70;2.50;;;14.20;99.90;;;;;;5059508;28;20437;-75
2023/08/30 06:43:12;;;;;;;2.47;2.27;;;14.40;99.90;;;;;;5065926;28;20536;-74
2023/08/30 06:45:39;;;;;;;3.03;2.73;;;14.20;99.90;;;;;;5060690;28;20437;-75
2023/08/30 06:48:07;;;;;;;2.53;2.33;;;14.10;99.90;;;;;;5064527;28;20505;-75
2023/08/30 06:50:34;;;;;;;2.30;2.20;;;14.20;99.90;;;;;;5061840;28;20461;-75
2023/08/30 06:53:03;;;;;;;1.73;1.63;;;14.20;99.90;;;;;;5064216;28;20575;-73
2023/08/30 06:55:30;;;;;;;2.40;2.20;;;14.00;99.90;;;;;;5063530;28;20439;-76
2023/08/30 06:57:57;;;;;;;1.93;1.83;;;14.20;99.90;;;;;;5067942;28;21136;-73
2023/08/30 07:00:24;;;;;;;2.60;2.40;;;14.20;99.90;;;;;;5066058;28;20513;-74
2023/08/30 07:02:51;;;;;;;2.93;2.77;;;14.30;99.90;;;;;;5058350;28;20570;-74
2023/08/30 07:05:18;;;;;;;3.00;2.00;;;14.40;99.90;;;;;;5063849;28;20516;-75
2023/08/30 07:07:45;;;;;;;3.27;2.30;;;14.50;99.90;;;;;;5064470;28;20924;-74
2023/08/30 07:10:13;;;;;;;2.77;2.30;;;14.50;99.90;;;;;;5061719;28;20923;-74
2023/08/30 07:12:40;;;;;;;2.00;1.80;;;14.40;99.90;;;;;;5062517;28;21037;-75
2023/08/30 07:15:08;;;;;;;2.50;2.30;;;14.40;99.90;;;;;;5061856;28;20440;-74
2023/08/30 07:17:35;;;;;;;4.87;1.90;;;14.30;99.90;;;;;;5064949;28;21157;-74
2023/08/30 07:20:04;;;;;;;2.60;1.90;;;14.30;99.90;;;;;;5069254;28;20457;-78
2023/08/30 07:22:31;;;;;;;1.87;1.77;;;14.20;99.90;;;;;;5070097;28;20477;-74
2023/08/30 07:24:58;;;;;;;2.70;2.10;;;14.20;99.90;;;;;;5067879;28;20440;-77
2023/08/30 07:27:28;;;;;;;1.73;1.63;;;14.30;99.90;;;;;;5069830;28;20923;-75
2023/08/30 07:29:55;;;;;;;2.27;1.60;;;14.20;99.90;;;;;;5068450;28;21076;-76
2023/08/30 07:32:22;;;;;;;1.50;1.40;;;14.30;99.90;;;;;;5068225;28;20479;-75
2023/08/30 07:34:49;;;;;;;1.63;1.50;;;14.30;99.90;;;;;;5065492;28;20466;-74
2023/08/30 07:37:20;;;;;;;3.47;3.27;;;14.30;99.90;;;;;;5068735;28;20474;-76
2023/08/30 07:39:47;;;;;;;5.33;3.23;;;14.20;99.90;;;;;;5066826;28;20551;-75
2023/08/30 07:42:15;;;;;;;1.73;1.60;;;14.20;99.90;;;;;;5067939;28;20918;-74
2023/08/30 07:44:43;;;;;;;2.60;2.40;;;14.30;99.90;;;;;;5068805;28;20547;-75
2023/08/30 07:47:10;;;;;;;1.70;1.60;;;14.40;99.90;;;;;;5068780;28;20439;-75
2023/08/30 07:49:37;;;;;;;1.50;1.40;;;14.60;99.90;;;;;;5070581;28;20463;-75
2023/08/30 07:52:05;;;;;;;3.40;3.10;;;14.60;99.90;;;;;;5068963;28;21076;-76
2023/08/30 07:54:32;;;;;;;2.53;2.37;;;14.40;99.90;;;;;;5076005;28;20468;-75
2023/08/30 07:56:59;;;;;;;2.13;1.93;;;14.40;99.90;;;;;;5065940;28;21089;-76
2023/08/30 07:59:26;;;;;;;1.93;1.30;;;14.40;99.90;;;;;;5068026;28;20484;-75
2023/08/30 08:01:54;;;;;;;2.87;2.60;;;14.50;99.90;;;;;;5068577;28;20512;-76
2023/08/30 08:04:22;;;;;;;2.40;2.20;;;14.40;99.90;;;;;;5069313;28;20571;-76
2023/08/30 08:06:49;;;;;;;1.77;1.37;;;14.40;99.90;;;;;;5066378;28;20551;-77
2023/08/30 08:09:17;;;;;;;2.63;2.20;;;14.40;99.90;;;;;;5065267;28;20452;-75
2023/08/30 08:11:44;;;;;;;2.33;2.13;;;14.40;99.90;;;;;;5068246;28;20488;-75
2023/08/30 08:14:11;;;;;;;2.70;1.90;;;14.50;99.90;;;;;;5066856;28;21001;-76
2023/08/30 08:16:38;;;;;;;1.77;1.60;;;14.30;99.90;;;;;;5069113;28;20444;-76
2023/08/30 08:19:07;;;;;;;1.40;1.30;;;14.50;99.90;;;;;;5068133;28;20476;-78
2023/08/30 08:21:34;;;;;;;1.57;1.47;;;14.70;99.90;;;;;;5068418;28;20453;-74
2023/08/30 08:24:01;;;;;;;1.70;1.47;;;14.80;99.90;;;;;;5067668;28;20469;-75
2023/08/30 08:26:28;;;;;;;2.00;1.80;;;14.90;99.90;;;;;;5067984;28;21029;-76
2023/08/30 08:28:56;;;;;;;1.53;1.43;;;15.00;99.90;;;;;;5067331;28;20488;-78
2023/08/30 08:31:23;;;;;;;2.57;2.37;;;15.10;99.90;;;;;;5061124;28;20469;-77
2023/08/30 08:33:53;;;;;;;2.30;1.97;;;15.10;99.90;;;;;;5061503;28;20566;-76
2023/08/30 08:36:22;;;;;;;2.53;2.33;;;14.90;99.90;;;;;;5067186;28;20438;-76
2023/08/30 08:38:48;;;;;;;1.20;1.10;;;14.60;99.90;;;;;;5067841;28;20499;-77
2023/08/30 08:41:17;;;;;;;1.50;1.40;;;14.60;99.90;;;;;;5067455;28;20476;-77
2023/08/30 08:43:44;;;;;;;1.97;1.83;;;14.40;99.90;;;;;;5067859;28;20498;-77
2023/08/30 08:46:14;;;;;;;1.53;1.43;;;14.30;99.90;;;;;;5067476;28;20519;-78
2023/08/30 08:48:44;;;;;;;2.30;1.83;;;14.30;99.90;;;;;;5061909;28;20526;-76
2023/08/30 08:51:11;;;;;;;2.30;2.07;;;14.40;99.90;;;;;;5062696;28;20437;-74
2023/08/30 08:53:40;;;;;;;5.17;2.30;;;14.40;99.90;;;;;;5057971;28;20511;-76
2023/08/30 08:56:08;;;;;;;2.20;1.93;;;14.60;99.90;;;;;;5062953;28;20447;-78
2023/08/30 08:58:37;;;;;;;1.80;1.70;;;14.70;99.90;;;;;;5065496;28;20545;-76
2023/08/30 09:01:05;;;;;;;3.17;2.97;;;14.80;99.90;;;;;;5054903;28;20513;-75
2023/08/30 09:03:34;;;;;;;1.37;1.27;;;14.80;99.90;;;;;;5057090;28;21068;-78
2023/08/30 09:06:04;;;;;;;2.60;1.67;;;14.80;99.90;;;;;;5059627;28;20815;-74
2023/08/30 09:08:30;;;;;;;1.70;1.60;;;14.70;99.90;;;;;;5066282;28;20495;-78
2023/08/30 09:10:59;;;;;;;3.60;2.40;;;14.70;99.90;;;;;;5054335;28;20538;-74
2023/08/30 09:13:26;;;;;;;1.50;1.40;;;14.60;99.90;;;;;;5066355;28;20553;-77
2023/08/30 09:15:53;;;;;;;2.20;2.00;;;14.60;99.90;;;;;;5065636;28;20481;-78
2023/08/30 09:18:20;;;;;;;2.03;1.83;;;14.60;99.90;;;;;;5064022;28;20946;-79
2023/08/30 09:20:47;;;;;;;2.00;1.87;;;14.70;99.90;;;;;;5071235;28;20483;-76
2023/08/30 09:23:18;;;;;;;1.67;1.57;;;14.80;99.90;;;;;;5079931;28;20451;-76
2023/08/30 09:25:45;;;;;;;1.93;1.83;;;15.00;99.90;;;;;;5068586;28;20474;-77
2023/08/30 09:28:14;;;;;;;1.60;1.50;;;15.00;99.90;;;;;;5065140;28;20470;-77
2023/08/30 09:30:41;;;;;;;1.90;1.80;;;15.10;99.90;;;;;;5051262;28;20447;-79
2023/08/30 09:33:08;;;;;;;1.37;1.27;;;15.10;99.90;;;;;;5065428;28;20481;-76
2023/08/30 09:35:44;;;;;;;1.97;1.63;;;15.00;99.90;;;;;;5050491;28;20466;-77
2023/08/30 09:38:18;;;;;;;1.53;1.27;;;15.00;99.90;;;;;;5055287;28;20445;-77
2023/08/30 09:40:45;;;;;;;1.47;1.37;;;15.20;99.90;;;;;;5062827;28;20738;-76
2023/08/30 09:43:15;;;;;;;1.77;1.40;;;15.40;99.90;;;;;;5061637;28;20533;-77
2023/08/30 09:45:42;;;;;;;1.10;0.90;;;15.70;99.90;;;;;;5060397;28;20469;-76
2023/08/30 09:48:09;;;;;;;1.70;0.90;;;15.60;99.90;;;;;;5059262;28;20536;-77
2023/08/30 09:50:37;;;;;;;1.90;1.37;;;15.70;99.90;;;;;;5055164;28;20448;-77
2023/08/30 09:53:08;;;;;;;3.50;1.50;;;15.90;99.90;;;;;;5057801;28;20484;-77
2023/08/30 09:55:35;;;;;;;2.10;0.90;;;16.20;99.90;;;;;;5059746;28;20526;-77
2023/08/30 09:58:04;;;;;;;1.40;1.10;;;16.40;99.90;;;;;;5061379;28;20813;-76
2023/08/30 10:00:33;;;;;;;3.43;1.90;;;16.50;99.90;;;;;;5063589;28;20446;-76
2023/08/30 10:03:01;;;;;;;1.20;1.10;;;16.80;99.90;;;;;;5067200;28;20479;-79
2023/08/30 10:05:28;;;;;;;0.80;0.80;;;16.90;99.90;;;;;;5062028;28;20455;-79
2023/08/30 10:07:56;;;;;;;3.47;1.33;;;17.00;99.90;;;;;;5058929;28;20437;-78
2023/08/30 10:10:24;;;;;;;1.33;1.23;;;17.20;99.90;;;;;;5059929;28;21205;-77
2023/08/30 10:12:52;;;;;;;1.47;1.37;;;17.20;99.90;;;;;;5061774;28;20538;-76
2023/08/30 10:15:22;;;;;;;3.40;1.53;;;17.30;99.90;;;;;;5064935;28;21137;-76
2023/08/30 10:17:54;;;;;;;1.87;0.90;;;17.40;99.90;;;;;;5066154;28;20448;-77
2023/08/30 10:20:22;;;;;;;2.37;1.10;;;17.90;99.90;;;;;;5065247;28;20496;-77
2023/08/30 10:22:51;;;;;;;0.60;0.60;;;18.10;99.90;;;;;;5064885;28;20488;-77
2023/08/30 10:25:21;;;;;;;0.70;0.70;;;17.90;99.90;;;;;;5055038;28;20455;-76
2023/08/30 10:27:50;;;;;;;1.23;0.90;;;17.90;99.90;;;;;;5064145;28;20440;-76
2023/08/30 10:30:20;;;;;;;1.57;1.00;;;17.80;99.90;;;;;;5061335;28;20550;-76
2023/08/30 10:32:49;;;;;;;1.00;1.00;;;18.00;99.90;;;;;;5055859;28;20511;-77
2023/08/30 10:35:18;;;;;;;0.70;0.70;;;18.00;99.90;;;;;;5056868;28;20521;-77
2023/08/30 10:37:55;;;;;;;1.40;1.20;;;18.10;99.90;;;;;;5058829;28;20467;-77
2023/08/30 10:40:23;;;;;;;0.83;0.80;;;18.20;99.90;;;;;;5057923;28;20545;-77
2023/08/30 10:43:00;;;;;;;1.00;0.90;;;18.30;99.90;;;;;;5060928;28;20516;-78
2023/08/30 10:45:27;;;;;;;2.77;2.57;;;18.10;99.90;;;;;;5057898;28;20436;-76
2023/08/30 10:47:58;;;;;;;1.97;1.80;;;17.70;99.90;;;;;;5058300;28;20585;-77
2023/08/30 10:50:31;;;;;;;1.43;1.33;;;17.70;99.90;;;;;;5068736;28;20447;-76
2023/08/30 10:52:58;;;;;;;6.60;5.83;;;17.90;99.90;;;;;;5066226;28;20480;-76
2023/08/30 10:55:25;;;;;;;10.17;7.70;;;18.00;99.90;;;;;;5067560;28;20479;-76
2023/08/30 10:58:01;;;;;;;31.90;21.60;;;18.40;99.90;;;;;;5059324;28;20528;-77
2023/08/30 11:00:30;;;;;;;25.50;18.43;;;18.90;99.90;;;;;;5066462;28;20451;-76
2023/08/30 11:02:59;;;;;;;9.17;6.93;;;19.10;99.90;;;;;;5049720;28;20469;-77
2023/08/30 11:05:27;;;;;;;4.97;4.53;;;19.10;99.90;;;;;;5058936;28;20496;-77
2023/08/30 11:07:54;;;;;;;5.20;2.20;;;19.00;99.90;;;;;;5060558;28;20448;-77
2023/08/30 11:10:22;;;;;;;2.47;1.50;;;18.90;99.90;;;;;;5061534;28;20452;-76
2023/08/30 11:12:50;;;;;;;12.17;6.50;;;18.50;99.90;;;;;;5058801;28;20480;-75
2023/08/30 11:15:17;;;;;;;10.37;5.73;;;18.50;99.90;;;;;;5061812;28;20531;-78
2023/08/30 11:17:44;;;;;;;4.90;4.20;;;18.60;99.90;;;;;;5064917;28;20455;-76
2023/08/30 11:20:16;;;;;;;7.53;5.97;;;18.40;99.90;;;;;;5068427;28;20455;-77
2023/08/30 11:22:44;;;;;;;5.30;4.80;;;18.30;99.90;;;;;;5067067;28;20459;-75
2023/08/30 11:25:12;;;;;;;2.40;2.30;;;18.20;99.90;;;;;;5065221;28;20997;-76
2023/08/30 11:27:40;;;;;;;1.30;1.20;;;18.30;99.90;;;;;;5068853;28;20513;-75
2023/08/30 11:30:08;;;;;;;13.60;6.73;;;18.30;99.90;;;;;;5065227;28;20552;-77
2023/08/30 11:32:35;;;;;;;11.33;7.20;;;18.40;99.90;;;;;;5060494;28;20525;-77
2023/08/30 11:35:03;;;;;;;5.50;4.40;;;18.60;99.90;;;;;;5058593;28;20985;-76
2023/08/30 11:37:31;;;;;;;5.50;3.17;;;18.80;99.90;;;;;;5068395;28;20938;-74
2023/08/30 11:40:00;;;;;;;11.53;5.90;;;19.00;99.90;;;;;;5066337;28;20502;-75
2023/08/30 11:42:27;;;;;;;9.60;5.43;;;19.30;99.90;;;;;;5066937;28;20923;-77
2023/08/30 11:44:54;;;;;;;10.80;4.30;;;19.60;99.90;;;;;;5064755;28;20435;-78
2023/08/30 11:47:23;;;;;;;2.83;1.70;;;19.30;99.90;;;;;;5064719;28;20553;-76
2023/08/30 11:49:51;;;;;;;9.60;4.90;;;19.50;99.90;;;;;;5065647;28;20548;-76
2023/08/30 11:52:19;;;;;;;5.13;3.60;;;19.60;99.90;;;;;;5059963;28;20453;-77
2023/08/30 11:54:48;;;;;;;2.03;1.93;;;19.40;99.90;;;;;;5064816;28;20440;-76
2023/08/30 11:57:15;;;;;;;1.63;1.30;;;19.30;99.90;;;;;;5061266;28;20467;-75
2023/08/30 11:59:43;;;;;;;5.47;2.33;;;19.10;99.90;;;;;;5065764;28;20521;-77
2023/08/30 12:02:13;;;;;;;1.43;1.33;;;19.00;99.90;;;;;;5063516;28;20506;-78
2023/08/30 12:04:42;;;;;;;2.30;1.10;;;18.70;99.90;;;;;;5062666;28;21146;-77
2023/08/30 12:07:09;;;;;;;3.43;1.90;;;19.00;99.90;;;;;;5066177;28;20460;-76
2023/08/30 12:09:36;;;;;;;1.10;0.87;;;19.10;99.90;;;;;;5063506;28;20444;-76
2023/08/30 12:12:10;;;;;;;1.17;1.07;;;18.90;99.90;;;;;;5060592;28;20456;-79
2023/08/30 12:14:37;;;;;;;1.40;1.10;;;19.30;99.90;;;;;;5062638;28;20999;-75
2023/08/30 12:17:05;;;;;;;2.63;2.00;;;19.40;99.90;;;;;;5076213;28;20500;-76
2023/08/30 12:19:33;;;;;;;2.67;1.87;;;19.30;99.90;;;;;;5070896;28;20544;-77
2023/08/30 12:22:05;;;;;;;1.70;1.40;;;19.40;99.90;;;;;;5064641;28;20465;-77
2023/08/30 12:24:42;;;;;;;0.93;0.90;;;19.80;99.90;;;;;;5062559;28;20531;-77
2023/08/30 12:27:10;;;;;;;0.70;0.70;;;19.70;99.90;;;;;;5062875;28;20452;-78
2023/08/30 12:29:37;;;;;;;2.93;1.57;;;19.50;99.90;;;;;;5065489;28;20602;-78
2023/08/30 12:32:05;;;;;;;1.33;1.10;;;19.60;99.90;;;;;;5066927;28;20433;-76
2023/08/30 12:34:32;;;;;;;1.50;1.40;;;19.40;99.90;;;;;;5062515;28;20954;-76
2023/08/30 12:36:59;;;;;;;1.10;1.00;;;19.50;99.90;;;;;;5063964;28;20851;-76
2023/08/30 12:39:26;;;;;;;0.73;0.73;;;19.30;99.90;;;;;;5066375;28;21104;-78
2023/08/30 12:41:53;;;;;;;1.77;1.20;;;18.90;99.90;;;;;;5063680;28;20477;-79
2023/08/30 12:44:22;;;;;;;1.37;0.80;;;18.60;99.90;;;;;;5065749;28;20453;-76
2023/08/30 12:46:49;;;;;;;1.10;0.80;;;18.60;99.90;;;;;;5065670;28;20529;-77
2023/08/30 12:49:15;;;;;;;8.70;1.53;;;18.50;99.90;;;;;;5065519;28;20436;-78